sensor_id;sensor_type;location;lat;lon;timestamp;pressure;altitude;pressure_sealevel;temperature;humidity
60319;BME280;46163;52.306;5.634;2023-05-12T00:01:56;101600.84;;;17.38;64.00
60319;BME280;46163;52.306;5.634;2023-05-12T00:04:22;101596.28;;;17.38;64.20
60319;BME280;46163;52.306;5.634;2023-05-12T00:06:47;101587.59;;;17.36;63.99
60319;BME280;46163;52.306;5.634;2023-05-12T00:09:13;101598.34;;;17.36;63.91
60319;BME280;46163;52.306;5.634;2023-05-12T00:11:38;101591.09;;;17.37;63.97
60319;BME280;46163;52.306;5.634;2023-05-12T00:14:05;101601.03;;;17.36;63.83
60319;BME280;46163;52.306;5.634;2023-05-12T00:16:31;101588.63;;;17.35;63.81
60319;BME280;46163;52.306;5.634;2023-05-12T00:18:56;101588.63;;;17.35;63.67
60319;BME280;46163;52.306;5.634;2023-05-12T00:21:22;101589.91;;;17.33;63.92
60319;BME280;46163;52.306;5.634;2023-05-12T00:23:47;101596.94;;;17.34;63.85
60319;BME280;46163;52.306;5.634;2023-05-12T00:26:15;101600.44;;;17.34;63.92
60319;BME280;46163;52.306;5.634;2023-05-12T00:28:41;101582.97;;;17.25;63.95
60319;BME280;46163;52.306;5.634;2023-05-12T00:31:08;101591.22;;;17.30;63.91
60319;BME280;46163;52.306;5.634;2023-05-12T00:33:33;101598.22;;;17.31;63.91
60319;BME280;46163;52.306;5.634;2023-05-12T00:35:59;101587.47;;;17.31;63.93
60319;BME280;46163;52.306;5.634;2023-05-12T00:38:28;101580.44;;;17.30;63.89
60319;BME280;46163;52.306;5.634;2023-05-12T00:40:53;101578.81;;;17.29;63.87
60319;BME280;46163;52.306;5.634;2023-05-12T00:43:19;101575.72;;;17.26;63.87
60319;BME280;46163;52.306;5.634;2023-05-12T00:45:44;101574.44;;;17.28;63.79
60319;BME280;46163;52.306;5.634;2023-05-12T00:48:10;101571.16;;;17.26;63.83
60319;BME280;46163;52.306;5.634;2023-05-12T00:50:36;101567.66;;;17.26;63.83
60319;BME280;46163;52.306;5.634;2023-05-12T00:53:03;101570.13;;;17.27;63.77
60319;BME280;46163;52.306;5.634;2023-05-12T00:55:28;101570.13;;;17.27;63.62
60319;BME280;46163;52.306;5.634;2023-05-12T00:57:55;101565.78;;;17.26;63.77
60319;BME280;46163;52.306;5.634;2023-05-12T01:00:21;101558.19;;;17.23;63.80
60319;BME280;46163;52.306;5.634;2023-05-12T01:02:47;101553.84;;;17.22;63.84
60319;BME280;46163;52.306;5.634;2023-05-12T01:05:13;101546.38;;;17.24;63.83
60319;BME280;46163;52.306;5.634;2023-05-12T01:07:39;101551.16;;;17.22;63.74
60319;BME280;46163;52.306;5.634;2023-05-12T01:10:16;101555.50;;;17.23;63.55
60319;BME280;46163;52.306;5.634;2023-05-12T01:12:41;101547.44;;;17.23;63.77
60319;BME280;46163;52.306;5.634;2023-05-12T01:15:07;101558.19;;;17.23;63.61
60319;BME280;46163;52.306;5.634;2023-05-12T01:17:34;101551.41;;;17.20;63.91
60319;BME280;46163;52.306;5.634;2023-05-12T01:20:04;101541.66;;;17.19;63.40
60319;BME280;46163;52.306;5.634;2023-05-12T01:22:31;101552.41;;;17.19;63.61
60319;BME280;46163;52.306;5.634;2023-05-12T01:25:06;101555.09;;;17.19;63.81
60319;BME280;46163;52.306;5.634;2023-05-12T01:27:33;101557.78;;;17.19;63.77
60319;BME280;46163;52.306;5.634;2023-05-12T01:30:00;101550.78;;;17.18;63.74
60319;BME280;46163;52.306;5.634;2023-05-12T01:32:27;101561.53;;;17.18;63.82
60319;BME280;46163;52.306;5.634;2023-05-12T01:34:54;101558.03;;;17.18;63.69
60319;BME280;46163;52.306;5.634;2023-05-12T01:37:20;101559.91;;;17.17;63.53
60319;BME280;46163;52.306;5.634;2023-05-12T01:39:45;101552.06;;;17.16;63.71
60319;BME280;46163;52.306;5.634;2023-05-12T01:42:11;101562.81;;;17.16;63.46
60319;BME280;46163;52.306;5.634;2023-05-12T01:44:37;101556.63;;;17.15;63.65
60319;BME280;46163;52.306;5.634;2023-05-12T01:47:02;101551.25;;;17.15;63.78
60319;BME280;46163;52.306;5.634;2023-05-12T01:49:34;101557.69;;;17.14;63.62
60319;BME280;46163;52.306;5.634;2023-05-12T01:51:59;101552.28;;;17.14;63.72
60319;BME280;46163;52.306;5.634;2023-05-12T01:54:25;101556.84;;;17.14;63.77
60319;BME280;46163;52.306;5.634;2023-05-12T01:56:50;101556.47;;;17.10;63.71
60319;BME280;46163;52.306;5.634;2023-05-12T01:59:15;101550.28;;;17.10;63.47
60319;BME280;46163;52.306;5.634;2023-05-12T02:01:41;101556.28;;;17.12;63.68
60319;BME280;46163;52.306;5.634;2023-05-12T02:04:06;101560.78;;;17.11;63.58
60319;BME280;46163;52.306;5.634;2023-05-12T02:06:33;101555.41;;;17.11;63.65
60319;BME280;46163;52.306;5.634;2023-05-12T02:08:58;101558.34;;;17.10;63.54
60319;BME280;46163;52.306;5.634;2023-05-12T02:11:24;101555.88;;;17.08;63.60
60319;BME280;46163;52.306;5.634;2023-05-12T02:13:50;101565.34;;;17.11;63.53
60319;BME280;46163;52.306;5.634;2023-05-12T02:16:15;101557.28;;;17.11;63.81
60319;BME280;46163;52.306;5.634;2023-05-12T02:18:41;101556.94;;;17.07;63.47
60319;BME280;46163;52.306;5.634;2023-05-12T02:21:06;101560.22;;;17.09;63.34
60319;BME280;46163;52.306;5.634;2023-05-12T02:23:32;101557.75;;;17.08;63.64
60319;BME280;46163;52.306;5.634;2023-05-12T02:25:58;101556.69;;;17.09;63.67
60319;BME280;46163;52.306;5.634;2023-05-12T02:28:25;101545.34;;;17.07;63.38
60319;BME280;46163;52.306;5.634;2023-05-12T02:30:51;101543.47;;;17.07;63.43
60319;BME280;46163;52.306;5.634;2023-05-12T02:33:18;101546.19;;;17.07;63.35
60319;BME280;46163;52.306;5.634;2023-05-12T02:35:44;101546.41;;;17.06;63.56
60319;BME280;46163;52.306;5.634;2023-05-12T02:38:11;101549.31;;;17.04;63.64
60319;BME280;46163;52.306;5.634;2023-05-12T02:40:36;101547.47;;;17.05;63.51
60319;BME280;46163;52.306;5.634;2023-05-12T02:43:04;101549.31;;;17.04;63.31
60319;BME280;46163;52.306;5.634;2023-05-12T02:45:30;101542.06;;;17.05;63.67
60319;BME280;46163;52.306;5.634;2023-05-12T02:47:57;101543.13;;;17.04;63.45
60319;BME280;46163;52.306;5.634;2023-05-12T02:50:23;101548.50;;;17.04;63.44
60319;BME280;46163;52.306;5.634;2023-05-12T02:52:49;101546.03;;;17.02;63.45
60319;BME280;46163;52.306;5.634;2023-05-12T02:55:15;101534.69;;;17.00;63.33
60319;BME280;46163;52.306;5.634;2023-05-12T02:57:42;101539.81;;;17.02;63.47
60319;BME280;46163;52.306;5.634;2023-05-12T03:00:08;101541.69;;;17.01;63.35
60319;BME280;46163;52.306;5.634;2023-05-12T03:02:34;101536.53;;;17.00;63.63
60319;BME280;46163;52.306;5.634;2023-05-12T03:05:00;101543.56;;;17.01;63.43
60319;BME280;46163;52.306;5.634;2023-05-12T03:07:26;101539.00;;;17.01;63.35
60319;BME280;46163;52.306;5.634;2023-05-12T03:09:52;101539.22;;;17.00;63.31
60319;BME280;46163;52.306;5.634;2023-05-12T03:12:17;101531.41;;;16.98;63.38
60319;BME280;46163;52.306;5.634;2023-05-12T03:14:43;101534.91;;;16.99;63.50
60319;BME280;46163;52.306;5.634;2023-05-12T03:17:08;101533.28;;;16.98;63.43
60319;BME280;46163;52.306;5.634;2023-05-12T03:19:34;101537.59;;;16.99;63.50
60319;BME280;46163;52.306;5.634;2023-05-12T03:22:00;101538.66;;;16.98;63.47
60319;BME280;46163;52.306;5.634;2023-05-12T03:24:26;101535.13;;;16.97;63.57
60319;BME280;46163;52.306;5.634;2023-05-12T03:26:51;101543.19;;;16.97;63.44
60319;BME280;46163;52.306;5.634;2023-05-12T03:29:17;101528.34;;;16.94;63.41
60319;BME280;46163;52.306;5.634;2023-05-12T03:31:42;101534.31;;;16.97;63.39
60319;BME280;46163;52.306;5.634;2023-05-12T03:34:08;101532.69;;;16.95;63.54
60319;BME280;46163;52.306;5.634;2023-05-12T03:36:33;101522.75;;;16.96;63.32
60319;BME280;46163;52.306;5.634;2023-05-12T03:38:59;101522.97;;;16.94;63.15
60319;BME280;46163;52.306;5.634;2023-05-12T03:41:24;101521.31;;;16.93;63.33
60319;BME280;46163;52.306;5.634;2023-05-12T03:43:49;101514.09;;;16.94;63.27
60319;BME280;46163;52.306;5.634;2023-05-12T03:46:15;101507.28;;;16.91;63.48
60319;BME280;46163;52.306;5.634;2023-05-12T03:48:41;101517.59;;;16.94;63.40
60319;BME280;46163;52.306;5.634;2023-05-12T03:51:06;101514.28;;;16.92;63.30
60319;BME280;46163;52.306;5.634;2023-05-12T03:53:31;101507.88;;;16.93;63.28
60319;BME280;46163;52.306;5.634;2023-05-12T03:56:03;101516.97;;;16.92;63.12
60319;BME280;46163;52.306;5.634;2023-05-12T03:58:28;101521.53;;;16.92;63.47
60319;BME280;46163;52.306;5.634;2023-05-12T04:00:55;101518.84;;;16.92;63.25
60319;BME280;46163;52.306;5.634;2023-05-12T04:03:21;101528.78;;;16.91;63.42
60319;BME280;46163;52.306;5.634;2023-05-12T04:05:46;101528.78;;;16.91;63.60
60319;BME280;46163;52.306;5.634;2023-05-12T04:08:12;101521.53;;;16.92;63.46
60319;BME280;46163;52.306;5.634;2023-05-12T04:10:40;101525.66;;;16.94;63.27
60319;BME280;46163;52.306;5.634;2023-05-12T04:13:07;101522.97;;;16.94;63.45
60319;BME280;46163;52.306;5.634;2023-05-12T04:15:35;101523.34;;;16.98;63.30
60319;BME280;46163;52.306;5.634;2023-05-12T04:18:02;101529.88;;;17.02;63.09
60319;BME280;46163;52.306;5.634;2023-05-12T04:20:29;101534.00;;;17.05;63.14
60319;BME280;46163;52.306;5.634;2023-05-12T04:22:55;101530.03;;;17.07;62.86
60319;BME280;46163;52.306;5.634;2023-05-12T04:25:21;101537.06;;;17.08;63.09
60319;BME280;46163;52.306;5.634;2023-05-12T04:27:46;101528.91;;;17.15;62.86
60319;BME280;46163;52.306;5.634;2023-05-12T04:30:12;101530.31;;;17.17;62.76
60319;BME280;46163;52.306;5.634;2023-05-12T04:32:37;101530.69;;;17.21;62.80
60319;BME280;46163;52.306;5.634;2023-05-12T04:35:03;101526.50;;;17.25;62.86
60319;BME280;46163;52.306;5.634;2023-05-12T04:37:29;101528.59;;;17.23;62.53
60319;BME280;46163;52.306;5.634;2023-05-12T04:39:54;101539.84;;;17.32;62.40
60319;BME280;46163;52.306;5.634;2023-05-12T04:42:20;101543.72;;;17.36;62.50
60319;BME280;46163;52.306;5.634;2023-05-12T04:44:45;101534.97;;;17.40;62.22
60319;BME280;46163;52.306;5.634;2023-05-12T04:47:11;101540.72;;;17.44;61.93
60319;BME280;46163;52.306;5.634;2023-05-12T04:49:40;101547.72;;;17.45;62.23
60319;BME280;46163;52.306;5.634;2023-05-12T04:52:06;101541.66;;;17.49;61.96
60319;BME280;46163;52.306;5.634;2023-05-12T04:54:31;101550.91;;;17.53;61.89
60319;BME280;46163;52.306;5.634;2023-05-12T04:56:57;101558.56;;;17.57;61.92
60319;BME280;46163;52.306;5.634;2023-05-12T04:59:23;101552.69;;;17.60;61.89
60319;BME280;46163;52.306;5.634;2023-05-12T05:01:48;101555.97;;;17.62;61.81
60319;BME280;46163;52.306;5.634;2023-05-12T05:04:14;101569.00;;;17.65;61.67
60319;BME280;46163;52.306;5.634;2023-05-12T05:06:40;101567.69;;;17.67;61.46
60319;BME280;46163;52.306;5.634;2023-05-12T05:09:08;101575.53;;;17.69;61.19
60319;BME280;46163;52.306;5.634;2023-05-12T05:11:33;101572.41;;;17.72;61.18
60319;BME280;46163;52.306;5.634;2023-05-12T05:13:59;101576.78;;;17.73;61.26
60319;BME280;46163;52.306;5.634;2023-05-12T05:16:25;101574.66;;;17.75;61.30
60319;BME280;46163;52.306;5.634;2023-05-12T05:18:50;101580.06;;;17.75;61.04
60319;BME280;46163;52.306;5.634;2023-05-12T05:21:16;101585.19;;;17.76;61.11
60319;BME280;46163;52.306;5.634;2023-05-12T05:23:41;101587.06;;;17.76;61.02
60319;BME280;46163;52.306;5.634;2023-05-12T05:26:07;101591.41;;;17.77;61.22
60319;BME280;46163;52.306;5.634;2023-05-12T05:28:33;101596.78;;;17.77;61.11
60319;BME280;46163;52.306;5.634;2023-05-12T05:30:59;101598.44;;;17.78;61.23
60319;BME280;46163;52.306;5.634;2023-05-12T05:33:24;101599.47;;;17.77;61.35
60319;BME280;46163;52.306;5.634;2023-05-12T05:35:50;101603.81;;;17.78;61.14
60319;BME280;46163;52.306;5.634;2023-05-12T05:38:15;101603.81;;;17.78;61.47
60319;BME280;46163;52.306;5.634;2023-05-12T05:40:40;101602.53;;;17.80;61.42
60319;BME280;46163;52.306;5.634;2023-05-12T05:43:06;101600.69;;;17.81;61.38
60319;BME280;46163;52.306;5.634;2023-05-12T05:45:32;101599.63;;;17.82;61.56
60319;BME280;46163;52.306;5.634;2023-05-12T05:47:58;101606.28;;;17.79;61.83
60319;BME280;46163;52.306;5.634;2023-05-12T05:50:23;101604.78;;;17.84;62.02
60319;BME280;46163;52.306;5.634;2023-05-12T05:52:48;101616.38;;;17.84;62.02
60319;BME280;46163;52.306;5.634;2023-05-12T05:55:14;101613.66;;;17.84;62.26
60319;BME280;46163;52.306;5.634;2023-05-12T05:57:40;101619.06;;;17.84;62.26
60319;BME280;46163;52.306;5.634;2023-05-12T06:00:08;101614.97;;;17.82;62.36
60319;BME280;46163;52.306;5.634;2023-05-12T06:02:35;101609.34;;;17.83;62.45
60319;BME280;46163;52.306;5.634;2023-05-12T06:05:01;101604.53;;;17.85;62.34
60319;BME280;46163;52.306;5.634;2023-05-12T06:07:27;101618.00;;;17.85;62.58
60319;BME280;46163;52.306;5.634;2023-05-12T06:09:53;101618.81;;;17.86;62.55
60319;BME280;46163;52.306;5.634;2023-05-12T06:12:19;101617.75;;;17.87;62.48
60319;BME280;46163;52.306;5.634;2023-05-12T06:14:45;101623.97;;;17.87;62.67
60319;BME280;46163;52.306;5.634;2023-05-12T06:17:10;101621.03;;;17.89;62.46
60319;BME280;46163;52.306;5.634;2023-05-12T06:19:36;101622.91;;;17.88;62.58
60319;BME280;46163;52.306;5.634;2023-05-12T06:22:02;101612.72;;;17.78;62.59
60319;BME280;46163;52.306;5.634;2023-05-12T06:24:27;101634.75;;;17.87;62.65
60319;BME280;46163;52.306;5.634;2023-05-12T06:26:53;101636.38;;;17.88;62.31
60319;BME280;46163;52.306;5.634;2023-05-12T06:29:21;101638.50;;;17.86;62.66
60319;BME280;46163;52.306;5.634;2023-05-12T06:31:46;101634.50;;;17.89;62.42
60319;BME280;46163;52.306;5.634;2023-05-12T06:34:12;101630.28;;;17.81;62.69
60319;BME280;46163;52.306;5.634;2023-05-12T06:36:38;101638.25;;;17.88;62.48
60319;BME280;46163;52.306;5.634;2023-05-12T06:39:06;101640.13;;;17.87;62.68
60319;BME280;46163;52.306;5.634;2023-05-12T06:41:34;101639.69;;;17.90;62.48
60319;BME280;46163;52.306;5.634;2023-05-12T06:43:59;101644.25;;;17.90;62.60
60319;BME280;46163;52.306;5.634;2023-05-12T06:46:26;101640.72;;;17.89;62.58
60319;BME280;46163;52.306;5.634;2023-05-12T06:48:52;101641.31;;;17.91;62.77
60319;BME280;46163;52.306;5.634;2023-05-12T06:51:19;101649.41;;;17.91;62.89
60319;BME280;46163;52.306;5.634;2023-05-12T06:53:45;101652.91;;;17.92;62.82
60319;BME280;46163;52.306;5.634;2023-05-12T06:56:10;101648.59;;;17.91;63.12
60319;BME280;46163;52.306;5.634;2023-05-12T06:58:44;101652.69;;;17.93;63.41
60319;BME280;46163;52.306;5.634;2023-05-12T07:01:10;101653.75;;;17.92;63.31
60319;BME280;46163;52.306;5.634;2023-05-12T07:03:35;101668.84;;;17.93;63.52
60319;BME280;46163;52.306;5.634;2023-05-12T07:06:01;101652.69;;;17.93;63.54
60319;BME280;46163;52.306;5.634;2023-05-12T07:08:26;101657.00;;;17.94;63.70
60319;BME280;46163;52.306;5.634;2023-05-12T07:10:54;101664.03;;;17.95;63.54
60319;BME280;46163;52.306;5.634;2023-05-12T07:13:22;101669.91;;;17.92;63.66
60319;BME280;46163;52.306;5.634;2023-05-12T07:15:48;101676.44;;;17.96;63.51
60319;BME280;46163;52.306;5.634;2023-05-12T07:18:13;101673.75;;;17.96;63.75
60319;BME280;46163;52.306;5.634;2023-05-12T07:20:38;101674.81;;;17.95;63.70
60319;BME280;46163;52.306;5.634;2023-05-12T07:23:04;101674.56;;;17.97;63.67
60319;BME280;46163;52.306;5.634;2023-05-12T07:25:29;101672.94;;;17.96;63.71
60319;BME280;46163;52.306;5.634;2023-05-12T07:27:55;101665.56;;;17.91;63.47
60319;BME280;46163;52.306;5.634;2023-05-12T07:30:20;101653.81;;;17.86;63.11
60319;BME280;46163;52.306;5.634;2023-05-12T07:32:46;101686.31;;;18.02;63.21
60319;BME280;46163;52.306;5.634;2023-05-12T07:35:12;101679.06;;;18.03;63.04
60319;BME280;46163;52.306;5.634;2023-05-12T07:37:38;101676.38;;;18.03;62.50
60319;BME280;46163;52.306;5.634;2023-05-12T07:40:06;101675.69;;;18.07;62.71
60319;BME280;46163;52.306;5.634;2023-05-12T07:42:31;101674.25;;;18.05;62.76
60319;BME280;46163;52.306;5.634;2023-05-12T07:44:57;101677.75;;;18.05;62.89
60319;BME280;46163;52.306;5.634;2023-05-12T07:47:24;101683.53;;;18.09;62.74
60319;BME280;46163;52.306;5.634;2023-05-12T07:49:51;101678.38;;;18.07;62.57
60319;BME280;46163;52.306;5.634;2023-05-12T07:52:17;101685.75;;;18.12;62.35
60319;BME280;46163;52.306;5.634;2023-05-12T07:54:42;101691.97;;;18.13;62.17
60319;BME280;46163;52.306;5.634;2023-05-12T07:57:08;101687.63;;;18.12;62.25
60319;BME280;46163;52.306;5.634;2023-05-12T07:59:33;101692.09;;;18.18;62.13
60319;BME280;46163;52.306;5.634;2023-05-12T08:01:59;101699.13;;;18.19;61.97
60319;BME280;46163;52.306;5.634;2023-05-12T08:04:24;101698.91;;;18.20;62.07
60319;BME280;46163;52.306;5.634;2023-05-12T08:06:52;101700.53;;;18.21;62.01
60319;BME280;46163;52.306;5.634;2023-05-12T08:09:17;101701.59;;;18.20;61.86
60319;BME280;46163;52.306;5.634;2023-05-12T08:11:43;101703.81;;;18.23;61.98
60319;BME280;46163;52.306;5.634;2023-05-12T08:14:09;101710.03;;;18.24;61.85
60319;BME280;46163;52.306;5.634;2023-05-12T08:16:34;101703.81;;;18.23;61.71
60319;BME280;46163;52.306;5.634;2023-05-12T08:19:00;101691.88;;;18.19;61.46
60319;BME280;46163;52.306;5.634;2023-05-12T08:21:28;101702.19;;;18.22;61.40
60319;BME280;46163;52.306;5.634;2023-05-12T08:23:53;101707.72;;;18.27;61.53
60319;BME280;46163;52.306;5.634;2023-05-12T08:26:19;101702.31;;;18.27;61.68
60319;BME280;46163;52.306;5.634;2023-05-12T08:28:45;101706.66;;;18.28;61.44
60319;BME280;46163;52.306;5.634;2023-05-12T08:31:11;101706.66;;;18.28;61.32
60319;BME280;46163;52.306;5.634;2023-05-12T08:33:37;101710.16;;;18.29;61.40
60319;BME280;46163;52.306;5.634;2023-05-12T08:36:02;101714.75;;;18.28;61.33
60319;BME280;46163;52.306;5.634;2023-05-12T08:38:28;101720.72;;;18.30;61.35
60319;BME280;46163;52.306;5.634;2023-05-12T08:43:44;101718.59;;;18.32;61.40
60319;BME280;46163;52.306;5.634;2023-05-12T08:46:11;101721.53;;;18.31;61.12
60319;BME280;46163;52.306;5.634;2023-05-12T08:48:38;101722.34;;;18.31;61.32
60319;BME280;46163;52.306;5.634;2023-05-12T08:51:05;101722.34;;;18.31;61.34
60319;BME280;46163;52.306;5.634;2023-05-12T08:53:35;101733.94;;;18.32;61.16
60319;BME280;46163;52.306;5.634;2023-05-12T08:56:04;101738.53;;;18.31;61.12
60319;BME280;46163;52.306;5.634;2023-05-12T08:58:30;101734.78;;;18.32;61.06
60319;BME280;46163;52.306;5.634;2023-05-12T09:00:56;101729.75;;;18.24;61.04
60319;BME280;46163;52.306;5.634;2023-05-12T09:03:25;101734.56;;;18.34;61.10
60319;BME280;46163;52.306;5.634;2023-05-12T09:05:51;101740.31;;;18.38;60.88
60319;BME280;46163;52.306;5.634;2023-05-12T09:08:20;101741.34;;;18.36;60.90
60319;BME280;46163;52.306;5.634;2023-05-12T09:10:47;101744.53;;;18.45;60.85
60319;BME280;46163;52.306;5.634;2023-05-12T09:16:03;101739.16;;;18.45;60.80
60319;BME280;46163;52.306;5.634;2023-05-12T09:18:59;101753.69;;;18.44;60.84
60319;BME280;46163;52.306;5.634;2023-05-12T09:21:26;101751.00;;;18.44;60.74
60319;BME280;46163;52.306;5.634;2023-05-12T09:23:53;101756.38;;;18.44;60.56
60319;BME280;46163;52.306;5.634;2023-05-12T09:26:19;101757.19;;;18.45;60.73
60319;BME280;46163;52.306;5.634;2023-05-12T09:28:47;101755.31;;;18.45;60.83
60319;BME280;46163;52.306;5.634;2023-05-12T09:31:23;101760.25;;;18.48;60.62
60319;BME280;46163;52.306;5.634;2023-05-12T09:33:50;101754.03;;;18.48;60.89
60319;BME280;46163;52.306;5.634;2023-05-12T09:36:20;101756.50;;;18.49;60.73
60319;BME280;46163;52.306;5.634;2023-05-12T09:38:58;101762.50;;;18.51;60.51
60319;BME280;46163;52.306;5.634;2023-05-12T09:41:24;101739.38;;;18.44;60.78
60319;BME280;46163;52.306;5.634;2023-05-12T09:43:51;101766.59;;;18.54;60.31
60319;BME280;46163;52.306;5.634;2023-05-12T09:46:17;101750.03;;;18.50;60.31
60319;BME280;46163;52.306;5.634;2023-05-12T09:48:46;101760.97;;;18.55;60.42
60319;BME280;46163;52.306;5.634;2023-05-12T09:51:15;101759.69;;;18.58;60.40
60319;BME280;46163;52.306;5.634;2023-05-12T09:53:43;101765.88;;;18.58;60.44
60319;BME280;46163;52.306;5.634;2023-05-12T09:56:13;101764.00;;;18.59;60.46
60319;BME280;46163;52.306;5.634;2023-05-12T09:58:44;101768.38;;;18.60;60.31
60319;BME280;46163;52.306;5.634;2023-05-12T10:01:12;101774.59;;;18.60;60.39
60319;BME280;46163;52.306;5.634;2023-05-12T10:03:40;101763.19;;;18.58;60.20
60319;BME280;46163;52.306;5.634;2023-05-12T10:06:53;101768.72;;;18.63;60.35
60319;BME280;46163;52.306;5.634;2023-05-12T10:09:10;101772.03;;;18.66;60.27
60319;BME280;46163;52.306;5.634;2023-05-12T10:11:39;101767.22;;;18.68;60.00
60319;BME280;46163;52.306;5.634;2023-05-12T10:14:05;101768.91;;;18.69;60.14
60319;BME280;46163;52.306;5.634;2023-05-12T10:16:34;101773.81;;;18.72;60.06
60319;BME280;46163;52.306;5.634;2023-05-12T10:19:04;101771.13;;;18.72;60.00
60319;BME280;46163;52.306;5.634;2023-05-12T10:21:31;101768.19;;;18.73;59.77
60319;BME280;46163;52.306;5.634;2023-05-12T10:23:57;101770.19;;;18.78;59.71
60319;BME280;46163;52.306;5.634;2023-05-12T10:26:23;101762.09;;;18.78;59.72
60319;BME280;46163;52.306;5.634;2023-05-12T10:28:50;101757.28;;;18.80;59.83
60319;BME280;46163;52.306;5.634;2023-05-12T10:31:18;101761.06;;;18.79;59.50
60319;BME280;46163;52.306;5.634;2023-05-12T10:34:03;101762.22;;;18.83;59.62
60319;BME280;46163;52.306;5.634;2023-05-12T10:36:42;101768.19;;;18.85;59.48
60319;BME280;46163;52.306;5.634;2023-05-12T10:39:08;101768.81;;;18.87;59.65
60319;BME280;46163;52.306;5.634;2023-05-12T10:41:34;101772.91;;;18.89;59.49
60319;BME280;46163;52.306;5.634;2023-05-12T10:44:00;101766.44;;;18.90;59.48
60319;BME280;46163;52.306;5.634;2023-05-12T10:46:26;101767.25;;;18.91;59.57
60319;BME280;46163;52.306;5.634;2023-05-12T10:51:23;101769.53;;;18.94;59.56
60319;BME280;46163;52.306;5.634;2023-05-12T10:54:02;101764.72;;;18.96;59.59
60319;BME280;46163;52.306;5.634;2023-05-12T10:59:22;101760.13;;;18.97;59.45
60319;BME280;46163;52.306;5.634;2023-05-12T11:04:54;101768.81;;;18.99;59.26
60319;BME280;46163;52.306;5.634;2023-05-12T11:07:22;101771.50;;;18.99;59.47
60319;BME280;46163;52.306;5.634;2023-05-12T11:09:48;101770.00;;;19.03;59.38
60319;BME280;46163;52.306;5.634;2023-05-12T11:12:14;101773.50;;;19.03;59.31
60319;BME280;46163;52.306;5.634;2023-05-12T11:14:42;101783.47;;;19.03;59.25
60319;BME280;46163;52.306;5.634;2023-05-12T11:17:08;101776.41;;;19.02;59.39
60319;BME280;46163;52.306;5.634;2023-05-12T11:19:38;101777.25;;;19.02;59.40
60319;BME280;46163;52.306;5.634;2023-05-12T11:22:05;101776.22;;;19.03;59.09
60319;BME280;46163;52.306;5.634;2023-05-12T11:24:35;101779.72;;;19.04;59.37
60319;BME280;46163;52.306;5.634;2023-05-12T11:27:02;101773.50;;;19.03;59.37
60319;BME280;46163;52.306;5.634;2023-05-12T11:29:30;101778.28;;;19.01;59.34
60319;BME280;46163;52.306;5.634;2023-05-12T11:31:57;101785.47;;;19.07;59.19
60319;BME280;46163;52.306;5.634;2023-05-12T11:34:25;101763.16;;;19.00;59.07
60319;BME280;46163;52.306;5.634;2023-05-12T11:36:53;101783.72;;;19.13;59.05
60319;BME280;46163;52.306;5.634;2023-05-12T11:39:23;101782.06;;;19.12;58.98
60319;BME280;46163;52.306;5.634;2023-05-12T11:41:50;101786.19;;;19.14;59.31
60319;BME280;46163;52.306;5.634;2023-05-12T11:44:24;101781.59;;;19.15;58.99
60319;BME280;46163;52.306;5.634;2023-05-12T11:47:00;101775.97;;;19.16;58.90
60319;BME280;46163;52.306;5.634;2023-05-12T11:49:27;101784.06;;;19.16;58.81
60319;BME280;46163;52.306;5.634;2023-05-12T11:51:58;101780.06;;;19.19;58.88
60319;BME280;46163;52.306;5.634;2023-05-12T11:54:27;101785.44;;;19.19;58.83
60319;BME280;46163;52.306;5.634;2023-05-12T11:56:54;101781.94;;;19.18;58.77
60319;BME280;46163;52.306;5.634;2023-05-12T11:59:31;101786.28;;;19.19;58.93
60319;BME280;46163;52.306;5.634;2023-05-12T12:01:58;101785.81;;;19.23;58.96
60319;BME280;46163;52.306;5.634;2023-05-12T12:04:35;101793.91;;;19.23;58.84
60319;BME280;46163;52.306;5.634;2023-05-12T12:07:02;101792.84;;;19.24;58.77
60319;BME280;46163;52.306;5.634;2023-05-12T12:09:38;101786.41;;;19.25;58.82
60319;BME280;46163;52.306;5.634;2023-05-12T12:12:08;101787.22;;;19.25;58.53
60319;BME280;46163;52.306;5.634;2023-05-12T12:14:35;101776.19;;;19.27;58.70
60319;BME280;46163;52.306;5.634;2023-05-12T12:17:02;101785.47;;;19.31;58.61
60319;BME280;46163;52.306;5.634;2023-05-12T12:19:28;101783.84;;;19.30;58.74
60319;BME280;46163;52.306;5.634;2023-05-12T12:21:55;101787.94;;;19.32;58.66
60319;BME280;46163;52.306;5.634;2023-05-12T12:24:22;101787.44;;;19.35;58.55
60319;BME280;46163;52.306;5.634;2023-05-12T12:26:48;101783.22;;;19.39;58.53
60319;BME280;46163;52.306;5.634;2023-05-12T12:29:13;101778.91;;;19.38;58.35
60319;BME280;46163;52.306;5.634;2023-05-12T12:31:39;101770.88;;;19.43;58.35
60319;BME280;46163;52.306;5.634;2023-05-12T12:34:08;101781.31;;;19.52;58.33
60319;BME280;46163;52.306;5.634;2023-05-12T12:36:34;101779.81;;;19.56;58.25
60319;BME280;46163;52.306;5.634;2023-05-12T12:39:00;101784.50;;;19.60;58.28
60319;BME280;46163;52.306;5.634;2023-05-12T12:41:28;101785.56;;;19.59;58.19
60319;BME280;46163;52.306;5.634;2023-05-12T12:43:54;101786.16;;;19.61;58.41
60319;BME280;46163;52.306;5.634;2023-05-12T12:46:19;101788.41;;;19.64;58.35
60319;BME280;46163;52.306;5.634;2023-05-12T12:48:45;101784.63;;;19.65;58.42
60319;BME280;46163;52.306;5.634;2023-05-12T12:51:10;101790.13;;;19.70;58.30
60319;BME280;46163;52.306;5.634;2023-05-12T12:53:36;101775.56;;;19.71;58.41
60319;BME280;46163;52.306;5.634;2023-05-12T12:56:09;101796.22;;;19.77;58.22
60319;BME280;46163;52.306;5.634;2023-05-12T12:58:38;101786.81;;;19.80;58.21
60319;BME280;46163;52.306;5.634;2023-05-12T13:01:03;101773.56;;;19.79;58.15
60319;BME280;46163;52.306;5.634;2023-05-12T13:03:29;101786.09;;;19.85;58.28